createdAt,value
2018-04-24T00:00:10.581Z,14.29
2018-04-24T00:02:38.112Z,14.33
2018-04-24T00:05:05.628Z,14.36
2018-04-24T00:07:33.159Z,14.36
2018-04-24T00:10:00.691Z,14.33
2018-04-24T00:12:28.282Z,14.32
2018-04-24T00:14:55.841Z,14.33
2018-04-24T00:17:23.365Z,14.31
2018-04-24T00:19:50.882Z,14.28
2018-04-24T00:22:18.416Z,14.23
2018-04-24T00:24:45.944Z,14.10
2018-04-24T00:27:13.459Z,14.06
2018-04-24T00:29:40.990Z,14.02
2018-04-24T00:32:08.559Z,14.02
2018-04-24T00:34:36.115Z,14.03
2018-04-24T00:37:03.631Z,13.94
2018-04-24T00:39:31.167Z,13.96
2018-04-24T00:41:58.680Z,13.91
2018-04-24T00:44:26.211Z,13.94
2018-04-24T00:46:53.745Z,13.95
2018-04-24T00:49:21.272Z,13.94
2018-04-24T00:51:48.795Z,13.93
2018-04-24T00:54:16.317Z,13.90
2018-04-24T00:56:43.832Z,13.85
2018-04-24T00:59:11.373Z,13.79
2018-04-24T01:01:38.896Z,13.72
2018-04-24T01:04:06.513Z,13.76
2018-04-24T01:06:34.087Z,13.77
2018-04-24T01:09:01.604Z,13.73
2018-04-24T01:11:29.208Z,13.76
2018-04-24T01:13:56.724Z,13.75
2018-04-24T01:16:24.334Z,13.73
2018-04-24T01:18:51.886Z,13.64
2018-04-24T01:21:19.413Z,13.64
2018-04-24T01:23:46.936Z,13.63
2018-04-24T01:26:14.461Z,13.61
2018-04-24T01:28:41.975Z,13.56
2018-04-24T01:31:09.504Z,13.54
2018-04-24T01:33:37.146Z,13.48
2018-04-24T01:36:04.671Z,13.49
2018-04-24T01:38:32.267Z,13.47
2018-04-24T01:40:59.791Z,13.45
2018-04-24T01:43:42.545Z,13.38
2018-04-24T01:46:10.071Z,13.37
2018-04-24T01:48:37.594Z,13.37
2018-04-24T01:51:05.152Z,13.31
2018-04-24T01:53:32.675Z,13.24
2018-04-24T01:56:00.235Z,13.28
2018-04-24T01:58:27.758Z,13.29
2018-04-24T02:00:55.358Z,13.29
2018-04-24T02:03:22.884Z,13.27
2018-04-24T02:05:50.481Z,13.25
2018-04-24T02:08:18.007Z,13.26
2018-04-24T02:10:45.550Z,13.27
2018-04-24T02:13:13.097Z,13.18
2018-04-24T02:15:40.617Z,13.19
2018-04-24T02:18:08.144Z,13.18
2018-04-24T02:20:35.736Z,13.09
2018-04-24T02:23:26.768Z,13.11
2018-04-24T02:25:54.288Z,13.07
2018-04-24T02:28:21.804Z,13.03
2018-04-24T02:30:49.325Z,13.06
2018-04-24T02:33:16.854Z,13.07
2018-04-24T02:35:44.380Z,13.03
2018-04-24T02:38:11.903Z,12.97
2018-04-24T02:40:39.428Z,13.03
2018-04-24T02:43:07.007Z,12.91
2018-04-24T02:45:34.578Z,12.95
2018-04-24T02:48:02.117Z,12.90
2018-04-24T02:50:29.703Z,12.89
2018-04-24T02:52:57.235Z,12.85
2018-04-24T02:55:24.744Z,12.52
2018-04-24T02:57:52.377Z,12.71
2018-04-24T03:00:19.930Z,12.76
2018-04-24T03:02:47.461Z,12.67
2018-04-24T03:05:15.028Z,12.67
2018-04-24T03:07:42.550Z,12.61
2018-04-24T03:10:10.074Z,12.49
2018-04-24T03:12:37.608Z,12.38
2018-04-24T03:15:05.197Z,12.44
2018-04-24T03:17:32.712Z,12.27
2018-04-24T03:20:00.249Z,12.18
2018-04-24T03:22:27.776Z,12.20
2018-04-24T03:24:55.307Z,12.18
2018-04-24T03:27:22.894Z,12.18
2018-04-24T03:29:50.456Z,12.20
2018-04-24T03:32:18.016Z,12.33
2018-04-24T03:34:45.539Z,12.31
2018-04-24T03:37:13.123Z,12.30
2018-04-24T03:39:40.665Z,12.05
2018-04-24T03:42:08.212Z,12.19
2018-04-24T03:44:35.727Z,12.20
2018-04-24T03:47:03.245Z,12.24
2018-04-24T03:49:30.763Z,12.23
2018-04-24T03:51:58.292Z,12.23
2018-04-24T03:54:25.809Z,12.22
2018-04-24T03:56:53.339Z,12.22
2018-04-24T04:02:03.478Z,12.05
2018-04-24T04:04:31.042Z,12.08
2018-04-24T04:06:58.603Z,12.14
2018-04-24T04:09:26.128Z,12.11
2018-04-24T04:11:53.820Z,12.16
2018-04-24T04:14:21.339Z,12.09
2018-04-24T04:16:51.285Z,12.14
2018-04-24T04:19:30.843Z,12.21
2018-04-24T04:22:10.177Z,12.09
2018-04-24T04:24:53.278Z,12.23
2018-04-24T04:27:20.872Z,12.31
2018-04-24T04:29:48.418Z,12.18
2018-04-24T04:32:15.942Z,12.16
2018-04-24T04:34:43.526Z,12.11
2018-04-24T04:37:11.045Z,12.19
2018-04-24T04:39:38.568Z,12.26
2018-04-24T04:42:06.114Z,12.26
2018-04-24T04:44:33.646Z,12.31
2018-04-24T04:47:01.240Z,12.34
2018-04-24T04:49:28.753Z,12.36
2018-04-24T04:51:56.295Z,12.47
2018-04-24T04:54:23.921Z,12.36
2018-04-24T04:56:51.439Z,12.47
2018-04-24T04:59:19.042Z,12.46
2018-04-24T05:01:46.570Z,12.42
2018-04-24T05:04:14.162Z,12.54
2018-04-24T05:06:41.723Z,12.47
2018-04-24T05:09:09.253Z,12.58
2018-04-24T05:11:36.777Z,12.58
2018-04-24T05:14:04.300Z,12.58
2018-04-24T05:16:31.854Z,12.57
2018-04-24T05:18:59.423Z,12.47
2018-04-24T05:21:26.958Z,12.53
2018-04-24T05:23:54.478Z,12.52
2018-04-24T05:26:21.996Z,12.55
2018-04-24T05:28:49.557Z,12.53
2018-04-24T05:31:17.118Z,12.66
2018-04-24T05:33:44.634Z,12.71
2018-04-24T05:36:12.177Z,12.72
2018-04-24T05:38:39.736Z,12.66
2018-04-24T05:41:07.356Z,12.60
2018-04-24T05:43:34.881Z,12.88
2018-04-24T05:46:02.404Z,12.88
2018-04-24T05:48:29.935Z,12.91
2018-04-24T05:50:57.450Z,13.02
2018-04-24T05:53:25.568Z,13.13
2018-04-24T05:55:53.089Z,13.02
2018-04-24T05:58:20.610Z,13.08
2018-04-24T06:00:48.267Z,13.13
2018-04-24T06:03:15.909Z,13.08
2018-04-24T06:05:43.468Z,13.13
2018-04-24T06:08:10.996Z,13.23
2018-04-24T06:10:38.537Z,13.33
2018-04-24T06:13:06.060Z,13.33
2018-04-24T06:15:33.604Z,13.56
2018-04-24T06:18:01.123Z,13.50
2018-04-24T06:20:28.813Z,13.38
2018-04-24T06:22:56.349Z,13.48
2018-04-24T06:25:23.886Z,13.45
2018-04-24T06:27:51.439Z,13.49
2018-04-24T06:30:18.961Z,13.39
2018-04-24T06:32:46.534Z,13.64
2018-04-24T06:35:14.067Z,13.54
2018-04-24T06:37:41.645Z,13.68
2018-04-24T06:40:09.181Z,13.85
2018-04-24T06:42:36.700Z,14.09
2018-04-24T06:45:04.333Z,14.26
2018-04-24T06:47:31.983Z,14.32
2018-04-24T06:49:59.517Z,14.37
2018-04-24T06:52:27.104Z,14.51
2018-04-24T06:54:54.721Z,14.57
2018-04-24T06:57:22.215Z,14.78
2018-04-24T06:59:49.803Z,15.19
2018-04-24T07:02:17.447Z,15.62
2018-04-24T07:04:45.007Z,15.69
2018-04-24T07:07:12.555Z,16.23
2018-04-24T07:09:40.071Z,16.31
2018-04-24T07:12:07.592Z,16.66
2018-04-24T07:14:35.147Z,16.84
2018-04-24T07:17:02.675Z,17.39
2018-04-24T07:19:30.210Z,17.52
2018-04-24T07:21:57.764Z,18.19
2018-04-24T07:24:25.403Z,17.73
2018-04-24T07:26:53.046Z,18.28
2018-04-24T07:29:20.594Z,18.08
2018-04-24T07:31:48.169Z,18.44
2018-04-24T07:34:15.704Z,18.92
2018-04-24T07:36:43.224Z,18.49
2018-04-24T07:39:10.797Z,18.58
2018-04-24T07:41:38.391Z,19.21
2018-04-24T07:44:05.923Z,18.96
2018-04-24T07:46:33.539Z,19.13
2018-04-24T07:49:01.063Z,19.08
2018-04-24T07:51:28.588Z,19.26
2018-04-24T07:53:56.313Z,20.31
2018-04-24T07:56:23.850Z,19.52
2018-04-24T07:58:51.405Z,19.77
2018-04-24T08:01:18.932Z,20.13
2018-04-24T08:03:46.479Z,20.39
2018-04-24T08:06:14.099Z,20.57
2018-04-24T08:08:41.630Z,20.19
2018-04-24T08:11:09.230Z,19.83
2018-04-24T08:13:36.794Z,20.19
2018-04-24T08:16:04.356Z,20.82
2018-04-24T08:18:31.888Z,21.03
2018-04-24T08:20:59.426Z,21.39
2018-04-24T08:23:26.956Z,21.77
2018-04-24T08:25:54.573Z,21.80
2018-04-24T08:28:22.149Z,22.44
2018-04-24T08:30:49.919Z,21.83
2018-04-24T08:33:17.479Z,22.02
2018-04-24T08:35:45.008Z,22.57
2018-04-24T08:38:12.564Z,22.10
2018-04-24T08:40:40.134Z,22.70
2018-04-24T08:43:07.663Z,22.13
2018-04-24T08:45:35.183Z,22.33
2018-04-24T08:48:02.719Z,22.21
2018-04-24T08:50:30.254Z,22.02
2018-04-24T08:52:57.786Z,21.58
2018-04-24T08:55:25.314Z,20.97
2018-04-24T08:57:52.827Z,21.56
2018-04-24T09:00:20.364Z,21.10
2018-04-24T09:02:47.881Z,20.96
2018-04-24T09:05:15.417Z,20.50
2018-04-24T09:07:42.951Z,20.99
2018-04-24T09:10:10.508Z,20.66
2018-04-24T09:12:38.133Z,20.54
2018-04-24T09:15:05.659Z,20.20
2018-04-24T09:17:33.186Z,20.33
2018-04-24T09:20:00.915Z,19.88
2018-04-24T09:22:28.441Z,19.55
2018-04-24T09:24:55.964Z,19.53
2018-04-24T09:27:23.486Z,19.63
2018-04-24T09:29:56.720Z,19.64
2018-04-24T09:32:24.261Z,19.14
2018-04-24T09:34:51.785Z,19.35
2018-04-24T09:37:19.300Z,19.05
2018-04-24T09:39:46.822Z,18.55
2018-04-24T09:42:14.335Z,18.59
2018-04-24T09:44:41.863Z,18.81
2018-04-24T09:47:09.379Z,18.40
2018-04-24T09:49:36.935Z,18.59
2018-04-24T09:52:04.440Z,18.74
2018-04-24T09:54:31.968Z,19.13
2018-04-24T09:56:59.509Z,19.51
2018-04-24T09:59:27.021Z,20.22
2018-04-24T10:01:54.546Z,20.15
2018-04-24T10:04:22.067Z,20.17
2018-04-24T10:06:49.607Z,20.40
2018-04-24T10:09:17.143Z,20.05
2018-04-24T10:11:44.787Z,19.69
2018-04-24T10:14:12.435Z,19.23
2018-04-24T10:16:39.947Z,19.72
2018-04-24T10:19:07.576Z,20.33
2018-04-24T10:21:35.116Z,20.01
2018-04-24T10:24:02.649Z,19.72
2018-04-24T10:26:30.258Z,19.71
2018-04-24T10:28:57.797Z,19.42
2018-04-24T10:31:25.373Z,19.81
2018-04-24T10:33:52.901Z,19.52
2018-04-24T10:36:20.424Z,19.25
2018-04-24T10:38:47.951Z,19.29
2018-04-24T10:41:15.511Z,19.44
2018-04-24T10:43:43.050Z,19.45
2018-04-24T10:46:10.563Z,19.36
2018-04-24T10:48:38.073Z,19.43
2018-04-24T10:51:05.589Z,19.57
2018-04-24T10:53:33.111Z,19.31
2018-04-24T10:56:00.703Z,19.20
2018-04-24T10:58:28.210Z,19.04
2018-04-24T11:00:55.783Z,19.02
2018-04-24T11:03:23.313Z,19.19
2018-04-24T11:05:50.835Z,19.15
2018-04-24T11:08:18.524Z,19.05
2018-04-24T11:10:46.096Z,18.88
2018-04-24T11:13:13.688Z,19.04
2018-04-24T11:15:41.275Z,19.01
2018-04-24T11:18:08.910Z,18.92
2018-04-24T11:20:36.471Z,18.81
2018-04-24T11:23:03.998Z,18.55
2018-04-24T11:25:31.527Z,18.62
2018-04-24T11:27:59.060Z,18.68
2018-04-24T11:30:26.711Z,18.63
2018-04-24T11:32:54.236Z,18.79
2018-04-24T11:35:21.825Z,18.72
2018-04-24T11:37:49.391Z,18.78
2018-04-24T11:40:16.920Z,18.82
2018-04-24T11:42:44.468Z,18.79
2018-04-24T11:45:12.079Z,18.47
2018-04-24T11:47:39.672Z,18.48
2018-04-24T11:50:07.193Z,18.37
2018-04-24T11:52:34.718Z,18.56
2018-04-24T11:55:02.244Z,18.49
2018-04-24T11:57:29.769Z,18.56
2018-04-24T11:59:57.324Z,18.70
2018-04-24T12:02:24.881Z,18.80
2018-04-24T12:04:52.405Z,18.72
2018-04-24T12:07:19.944Z,18.59
2018-04-24T12:09:47.494Z,18.62
2018-04-24T12:12:15.026Z,19.00
2018-04-24T12:14:42.556Z,18.50
2018-04-24T12:17:10.079Z,18.62
2018-04-24T12:19:37.606Z,18.42
2018-04-24T12:22:05.123Z,18.67
2018-04-24T12:24:32.752Z,18.43
2018-04-24T12:27:00.248Z,18.38
2018-04-24T12:29:27.845Z,18.33
2018-04-24T12:31:55.367Z,18.13
2018-04-24T12:34:22.929Z,18.03
2018-04-24T12:36:50.835Z,17.97
2018-04-24T12:39:18.493Z,17.89
2018-04-24T12:41:46.008Z,17.88
2018-04-24T12:44:13.638Z,17.98
2018-04-24T12:46:41.278Z,17.72
2018-04-24T12:49:09.355Z,17.53
2018-04-24T12:51:36.929Z,17.53
2018-04-24T12:54:04.466Z,17.53
2018-04-24T12:56:31.994Z,17.41
2018-04-24T12:58:59.595Z,17.58
2018-04-24T13:01:27.248Z,17.56
2018-04-24T13:03:54.847Z,17.41
2018-04-24T13:06:22.328Z,17.40
2018-04-24T13:08:49.886Z,17.50
2018-04-24T13:11:17.413Z,17.42
2018-04-24T13:13:44.946Z,16.92
2018-04-24T13:16:12.472Z,17.04
2018-04-24T13:18:40.002Z,16.89
2018-04-24T13:21:07.520Z,17.04
2018-04-24T13:23:35.036Z,17.02
2018-04-24T13:26:02.645Z,16.82
2018-04-24T13:28:30.201Z,16.88
2018-04-24T13:30:57.737Z,16.95
2018-04-24T13:33:25.251Z,16.79
2018-04-24T13:35:52.782Z,16.70
2018-04-24T13:38:20.308Z,16.63
2018-04-24T13:40:47.836Z,16.72
2018-04-24T13:43:15.638Z,16.57
2018-04-24T13:45:43.109Z,16.59
2018-04-24T13:48:10.623Z,16.62
2018-04-24T13:50:38.140Z,16.52
2018-04-24T13:53:05.667Z,16.66
2018-04-24T13:55:33.180Z,16.76
2018-04-24T13:58:00.824Z,16.87
2018-04-24T14:00:28.368Z,16.88
2018-04-24T14:02:55.896Z,16.73
2018-04-24T14:05:23.413Z,16.91
2018-04-24T14:07:50.923Z,16.99
2018-04-24T14:10:18.455Z,16.94
2018-04-24T14:12:45.977Z,17.10
2018-04-24T14:15:13.491Z,16.85
2018-04-24T14:17:41.028Z,16.95
2018-04-24T14:20:08.540Z,16.96
2018-04-24T14:22:36.052Z,17.00
2018-04-24T14:25:03.607Z,17.22
2018-04-24T14:27:31.132Z,17.31
2018-04-24T14:29:58.656Z,17.27
2018-04-24T14:32:26.174Z,17.02
2018-04-24T14:34:53.685Z,17.29
2018-04-24T14:37:21.197Z,17.15
2018-04-24T14:39:48.716Z,17.29
2018-04-24T14:42:22.234Z,17.39
2018-04-24T14:44:49.761Z,17.22
2018-04-24T14:47:17.275Z,17.28
2018-04-24T14:49:44.808Z,17.29
2018-04-24T14:52:12.329Z,17.09
2018-04-24T14:54:39.893Z,16.96
2018-04-24T14:57:07.412Z,17.01
2018-04-24T14:59:34.944Z,16.95
2018-04-24T15:02:02.478Z,16.90
2018-04-24T15:04:30.008Z,16.88
2018-04-24T15:06:57.544Z,16.72
2018-04-24T15:09:25.075Z,16.81
2018-04-24T15:11:52.606Z,16.83
2018-04-24T15:14:20.125Z,16.75
2018-04-24T15:16:47.646Z,16.72
2018-04-24T15:19:15.173Z,16.73
2018-04-24T15:21:42.777Z,16.75
2018-04-24T15:24:10.292Z,16.77
2018-04-24T15:26:37.979Z,16.61
2018-04-24T15:29:05.515Z,16.61
2018-04-24T15:31:33.107Z,16.49
2018-04-24T15:34:00.681Z,16.47
2018-04-24T15:36:28.258Z,16.49
2018-04-24T15:38:55.782Z,16.40
2018-04-24T15:41:23.296Z,16.42
2018-04-24T15:43:50.913Z,16.44
2018-04-24T15:46:18.428Z,16.42
2018-04-24T15:48:45.961Z,16.43
2018-04-24T15:51:13.608Z,16.36
2018-04-24T15:53:41.157Z,16.23
2018-04-24T15:56:08.679Z,16.23
2018-04-24T15:58:36.198Z,16.15
2018-04-24T16:01:03.718Z,16.08
2018-04-24T16:03:31.244Z,16.09
2018-04-24T16:05:58.773Z,16.10
2018-04-24T16:08:26.417Z,16.08
2018-04-24T16:10:53.960Z,16.14
2018-04-24T16:13:21.528Z,16.18
2018-04-24T16:15:49.051Z,16.17
2018-04-24T16:18:16.649Z,16.19
2018-04-24T16:20:44.167Z,16.25
2018-04-24T16:23:11.773Z,16.32
2018-04-24T16:25:39.304Z,16.22
2018-04-24T16:28:06.894Z,16.18
2018-04-24T16:30:34.449Z,16.18
2018-04-24T16:33:02.009Z,16.11
2018-04-24T16:35:29.528Z,16.04
2018-04-24T16:37:57.050Z,16.19
2018-04-24T16:40:24.586Z,16.21
2018-04-24T16:42:52.099Z,16.21
2018-04-24T16:45:19.647Z,16.19
2018-04-24T16:47:47.203Z,16.22
2018-04-24T16:50:14.729Z,16.22
2018-04-24T16:52:42.269Z,16.18
2018-04-24T16:55:09.789Z,16.17
2018-04-24T16:57:37.308Z,16.20
2018-04-24T17:00:04.827Z,16.13
2018-04-24T17:02:32.347Z,16.09
2018-04-24T17:04:59.869Z,16.00
2018-04-24T17:07:27.468Z,16.06
2018-04-24T17:09:55.136Z,15.95
2018-04-24T17:12:22.691Z,15.94
2018-04-24T17:14:50.328Z,15.94
2018-04-24T17:17:17.874Z,15.94
2018-04-24T17:19:45.409Z,15.95
2018-04-24T17:22:12.964Z,15.96
2018-04-24T17:24:40.494Z,15.96
2018-04-24T17:27:08.040Z,15.89
2018-04-24T17:29:35.603Z,15.93
2018-04-24T17:32:03.150Z,15.91
2018-04-24T17:34:30.672Z,15.95
2018-04-24T17:36:58.234Z,15.95
2018-04-24T17:39:25.795Z,15.87
2018-04-24T17:41:53.335Z,15.72
2018-04-24T17:44:20.947Z,15.77
2018-04-24T17:46:48.503Z,15.79
2018-04-24T17:49:16.033Z,15.82
2018-04-24T17:51:43.567Z,15.77
2018-04-24T17:54:11.186Z,15.79
2018-04-24T17:56:38.721Z,15.79
2018-04-24T17:59:06.275Z,15.65
2018-04-24T18:01:33.841Z,15.71
2018-04-24T18:04:01.376Z,15.63
2018-04-24T18:06:28.986Z,15.57
2018-04-24T18:08:56.542Z,15.59
2018-04-24T18:11:24.171Z,15.54
2018-04-24T18:13:51.697Z,15.46
2018-04-24T18:16:19.255Z,15.48
2018-04-24T18:18:46.796Z,15.49
2018-04-24T18:21:14.334Z,15.49
2018-04-24T18:23:41.855Z,15.51
2018-04-24T18:26:09.392Z,15.47
2018-04-24T18:28:36.934Z,15.45
2018-04-24T18:31:04.455Z,15.43
2018-04-24T18:33:32.046Z,15.35
2018-04-24T18:35:59.617Z,15.34
2018-04-24T18:38:27.177Z,15.29
2018-04-24T18:40:54.875Z,15.35
2018-04-24T18:43:22.504Z,15.32
2018-04-24T18:45:50.037Z,15.34
2018-04-24T18:48:17.562Z,15.32
2018-04-24T18:50:45.096Z,15.26
2018-04-24T18:53:12.705Z,15.24
2018-04-24T18:55:40.168Z,15.20
2018-04-24T18:58:07.740Z,15.18
2018-04-24T19:00:35.267Z,15.14
2018-04-24T19:03:02.806Z,15.14
2018-04-24T19:05:30.361Z,15.08
2018-04-24T19:07:57.983Z,15.03
2018-04-24T19:10:25.539Z,14.99
2018-04-24T19:12:53.074Z,15.00
2018-04-24T19:15:20.591Z,14.93
2018-04-24T19:17:48.133Z,14.97
2018-04-24T19:20:15.667Z,14.97
2018-04-24T19:22:43.221Z,14.93
2018-04-24T19:25:16.301Z,14.91
2018-04-24T19:27:43.818Z,14.86
2018-04-24T19:30:11.433Z,14.87
2018-04-24T19:32:38.955Z,14.84
2018-04-24T19:35:06.475Z,14.85
2018-04-24T19:37:34.024Z,14.86
2018-04-24T19:40:07.159Z,14.83
2018-04-24T19:42:34.684Z,14.81
2018-04-24T19:45:02.219Z,14.81
2018-04-24T19:47:29.782Z,14.75
2018-04-24T19:50:03.030Z,14.80
2018-04-24T19:52:30.555Z,14.81
2018-04-24T19:55:03.674Z,14.75
2018-04-24T19:57:31.204Z,14.78
2018-04-24T19:59:58.736Z,14.78
2018-04-24T20:02:26.291Z,14.76
2018-04-24T20:04:53.843Z,14.67
2018-04-24T20:07:21.388Z,14.68
2018-04-24T20:09:48.936Z,14.64
2018-04-24T20:12:16.496Z,14.66
2018-04-24T20:14:44.025Z,14.64
2018-04-24T20:17:11.543Z,14.63
2018-04-24T20:19:39.066Z,14.66
2018-04-24T20:22:06.601Z,14.69
2018-04-24T20:24:34.224Z,14.66
2018-04-24T20:27:01.820Z,14.53
2018-04-24T20:29:29.339Z,14.41
2018-04-24T20:31:57.131Z,14.37
2018-04-24T20:34:24.656Z,14.32
2018-04-24T20:36:52.191Z,14.33
2018-04-24T20:39:19.823Z,14.47
2018-04-24T20:41:47.359Z,14.45
2018-04-24T20:44:14.877Z,14.47
2018-04-24T20:46:42.414Z,14.51
2018-04-24T20:49:09.964Z,14.47
2018-04-24T20:51:37.500Z,14.51
2018-04-24T20:54:05.016Z,14.51
2018-04-24T20:56:32.542Z,14.40
2018-04-24T20:59:00.069Z,14.30
2018-04-24T21:01:27.584Z,14.28
2018-04-24T21:03:55.119Z,14.28
2018-04-24T21:06:22.644Z,14.29
2018-04-24T21:08:50.168Z,14.25
2018-04-24T21:11:17.692Z,14.22
2018-04-24T21:13:45.224Z,14.34
2018-04-24T21:16:12.813Z,14.32
2018-04-24T21:18:40.340Z,14.32
2018-04-24T21:21:07.901Z,14.37
2018-04-24T21:23:35.460Z,14.36
2018-04-24T21:26:03.122Z,14.32
2018-04-24T21:28:30.714Z,14.32
2018-04-24T21:30:58.237Z,14.37
2018-04-24T21:33:25.760Z,14.30
2018-04-24T21:35:53.397Z,14.26
2018-04-24T21:38:20.925Z,14.31
2018-04-24T21:40:48.479Z,14.23
2018-04-24T21:43:16.077Z,14.14
2018-04-24T21:45:43.600Z,14.10
2018-04-24T21:48:11.200Z,14.11
2018-04-24T21:50:38.720Z,14.09
2018-04-24T21:53:06.280Z,14.07
2018-04-24T21:55:33.797Z,14.12
2018-04-24T21:58:01.333Z,14.09
2018-04-24T22:00:28.856Z,14.11
2018-04-24T22:02:56.421Z,14.14
2018-04-24T22:05:23.937Z,14.02
2018-04-24T22:07:51.678Z,14.06
2018-04-24T22:10:19.200Z,14.08
2018-04-24T22:12:46.794Z,14.01
2018-04-24T22:15:14.359Z,14.04
2018-04-24T22:17:42.011Z,14.05
2018-04-24T22:20:09.543Z,14.01
2018-04-24T22:22:37.060Z,14.05
2018-04-24T22:25:04.679Z,14.10
2018-04-24T22:27:32.196Z,14.10
2018-04-24T22:29:59.747Z,14.08
2018-04-24T22:32:27.313Z,14.13
2018-04-24T22:34:54.855Z,14.14
2018-04-24T22:37:22.495Z,14.13
2018-04-24T22:39:50.020Z,14.11
2018-04-24T22:42:17.553Z,14.02
2018-04-24T22:44:45.091Z,14.06
2018-04-24T22:47:12.733Z,14.07
2018-04-24T22:49:40.293Z,14.11
2018-04-24T22:52:07.856Z,14.00
2018-04-24T22:54:35.380Z,14.10
2018-04-24T22:57:02.978Z,14.06
2018-04-24T22:59:30.502Z,14.03
2018-04-24T23:01:58.028Z,14.07
2018-04-24T23:04:25.556Z,14.02
2018-04-24T23:06:53.084Z,14.02
2018-04-24T23:09:20.624Z,13.98
2018-04-24T23:11:59.906Z,13.93
2018-04-24T23:14:39.375Z,14.10
2018-04-24T23:17:18.993Z,14.14
2018-04-24T23:19:58.431Z,14.10
2018-04-24T23:22:30.519Z,14.13
2018-04-24T23:24:58.154Z,13.94
2018-04-24T23:27:25.680Z,13.91
2018-04-24T23:29:53.205Z,13.92
2018-04-24T23:32:20.731Z,14.04
2018-04-24T23:34:48.254Z,14.02
2018-04-24T23:37:15.785Z,13.88
2018-04-24T23:39:43.308Z,13.93
2018-04-24T23:42:10.835Z,13.83
2018-04-24T23:44:38.356Z,13.83
2018-04-24T23:47:05.890Z,13.80
2018-04-24T23:49:33.418Z,13.78
2018-04-24T23:52:00.938Z,13.86
2018-04-24T23:54:28.489Z,13.94
2018-04-24T23:56:56.023Z,13.86
2018-04-24T23:59:23.553Z,13.91
